createdAt,value
2018-07-25T00:00:09.224Z,19.03
2018-07-25T00:02:37.662Z,19.40
2018-07-25T00:05:06.301Z,19.00
2018-07-25T00:07:34.674Z,19.93
2018-07-25T00:10:03.153Z,21.20
2018-07-25T00:12:31.583Z,21.40
2018-07-25T00:14:59.991Z,19.17
2018-07-25T00:17:28.421Z,18.10
2018-07-25T00:19:56.807Z,18.50
2018-07-25T00:22:25.238Z,18.00
2018-07-25T00:24:53.670Z,18.53
2018-07-25T00:27:22.066Z,18.77
2018-07-25T00:29:50.472Z,18.77
2018-07-25T00:32:18.820Z,18.70
2018-07-25T00:34:47.212Z,17.80
2018-07-25T00:37:15.620Z,18.10
2018-07-25T00:39:44.016Z,17.20
2018-07-25T00:42:12.411Z,18.10
2018-07-25T00:44:40.530Z,17.60
2018-07-25T00:47:08.954Z,18.47
2018-07-25T00:49:37.385Z,18.13
2018-07-25T00:52:05.818Z,18.70
2018-07-25T00:54:34.296Z,19.00
2018-07-25T00:57:02.664Z,19.00
2018-07-25T00:59:31.076Z,19.17
2018-07-25T01:01:59.460Z,18.87
2018-07-25T01:04:27.836Z,19.53
2018-07-25T01:06:56.248Z,17.83
2018-07-25T01:09:24.629Z,19.30
2018-07-25T01:11:53.009Z,19.67
2018-07-25T01:14:21.444Z,19.47
2018-07-25T01:16:49.784Z,19.80
2018-07-25T01:19:18.193Z,19.87
2018-07-25T01:21:46.625Z,19.03
2018-07-25T01:24:15.029Z,19.03
2018-07-25T01:26:43.394Z,19.60
2018-07-25T01:29:11.799Z,19.17
2018-07-25T01:31:40.169Z,19.00
2018-07-25T01:34:08.614Z,19.27
2018-07-25T01:36:37.025Z,19.47
2018-07-25T01:39:07.693Z,19.20
2018-07-25T01:41:36.171Z,19.43
2018-07-25T01:44:04.584Z,20.60
2018-07-25T01:46:32.976Z,20.63
2018-07-25T01:49:01.354Z,20.67
2018-07-25T01:51:29.744Z,21.27
2018-07-25T01:53:58.148Z,21.60
2018-07-25T01:56:26.574Z,21.93
2018-07-25T01:58:55.072Z,21.97
2018-07-25T02:01:23.577Z,21.90
2018-07-25T02:03:51.591Z,19.73
2018-07-25T02:06:20.012Z,21.00
2018-07-25T02:08:48.449Z,21.00
2018-07-25T02:11:16.864Z,21.47
2018-07-25T02:13:45.297Z,20.30
2018-07-25T02:16:13.632Z,20.80
2018-07-25T02:18:42.027Z,20.97
2018-07-25T02:21:10.429Z,21.83
2018-07-25T02:23:38.810Z,20.77
2018-07-25T02:26:07.236Z,20.00
2018-07-25T02:28:35.677Z,20.23
2018-07-25T02:31:03.729Z,20.57
2018-07-25T02:33:37.367Z,20.67
2018-07-25T02:36:05.763Z,21.10
2018-07-25T02:38:34.145Z,20.37
2018-07-25T02:41:02.585Z,21.57
2018-07-25T02:43:30.984Z,20.77
2018-07-25T02:45:59.432Z,21.17
2018-07-25T02:48:27.811Z,21.73
2018-07-25T02:50:56.248Z,21.27
2018-07-25T02:53:24.653Z,21.40
2018-07-25T02:55:53.012Z,20.60
2018-07-25T02:58:21.407Z,21.20
2018-07-25T03:00:49.797Z,22.50
2018-07-25T03:03:18.201Z,22.00
2018-07-25T03:05:46.669Z,23.20
2018-07-25T03:08:15.157Z,22.98
2018-07-25T03:10:50.582Z,23.18
2018-07-25T03:13:19.018Z,24.75
2018-07-25T03:15:53.368Z,24.40
2018-07-25T03:18:21.765Z,24.70
2018-07-25T03:20:50.213Z,24.40
2018-07-25T03:23:18.596Z,24.23
2018-07-25T03:25:46.985Z,22.30
2018-07-25T03:28:15.405Z,22.83
2018-07-25T03:30:43.790Z,23.10
2018-07-25T03:33:11.881Z,21.67
2018-07-25T03:35:40.251Z,22.57
2018-07-25T03:38:08.661Z,23.27
2018-07-25T03:40:37.058Z,23.60
2018-07-25T03:43:05.537Z,23.57
2018-07-25T03:45:34.009Z,22.20
2018-07-25T03:48:02.471Z,24.30
2018-07-25T03:50:30.816Z,24.20
2018-07-25T03:52:59.289Z,23.87
2018-07-25T03:55:27.716Z,23.80
2018-07-25T03:57:56.160Z,24.23
2018-07-25T04:00:24.563Z,24.70
2018-07-25T04:02:52.974Z,23.73
2018-07-25T04:05:21.368Z,22.90
2018-07-25T04:07:49.779Z,23.30
2018-07-25T04:10:18.240Z,22.90
2018-07-25T04:12:46.648Z,23.50
2018-07-25T04:15:15.044Z,22.47
2018-07-25T04:17:45.234Z,21.83
2018-07-25T04:20:15.328Z,23.17
2018-07-25T04:22:44.903Z,22.33
2018-07-25T04:25:13.448Z,22.37
2018-07-25T04:27:42.884Z,22.97
2018-07-25T04:30:12.396Z,23.20
2018-07-25T04:32:41.784Z,21.97
2018-07-25T04:35:14.504Z,23.87
2018-07-25T04:37:43.464Z,23.50
2018-07-25T04:40:11.943Z,23.40
2018-07-25T04:42:40.377Z,24.53
2018-07-25T04:45:10.156Z,25.43
2018-07-25T04:47:38.688Z,23.07
2018-07-25T04:50:07.061Z,26.50
2018-07-25T04:52:35.468Z,25.60
2018-07-25T04:55:03.992Z,25.97
2018-07-25T04:57:32.360Z,26.20
2018-07-25T05:00:00.821Z,26.00
2018-07-25T05:02:29.269Z,25.90
2018-07-25T05:04:57.672Z,24.53
2018-07-25T05:07:26.052Z,24.90
2018-07-25T05:09:54.496Z,24.77
2018-07-25T05:12:22.858Z,24.70
2018-07-25T05:14:51.245Z,25.30
2018-07-25T05:17:19.668Z,25.77
2018-07-25T05:19:48.111Z,23.33
2018-07-25T05:22:16.450Z,23.23
2018-07-25T05:24:44.873Z,23.90
2018-07-25T05:27:13.233Z,22.53
2018-07-25T05:29:41.624Z,24.60
2018-07-25T05:32:10.072Z,23.27
2018-07-25T05:34:38.465Z,21.93
2018-07-25T05:37:06.921Z,22.00
2018-07-25T05:39:35.266Z,21.43
2018-07-25T05:42:03.710Z,21.00
2018-07-25T05:44:32.138Z,20.73
2018-07-25T05:47:00.530Z,20.50
2018-07-25T05:49:28.992Z,20.77
2018-07-25T05:51:57.386Z,20.30
2018-07-25T05:54:25.850Z,21.00
2018-07-25T05:56:54.248Z,21.20
2018-07-25T05:59:22.635Z,19.83
2018-07-25T06:01:51.081Z,19.00
2018-07-25T06:04:19.431Z,20.00
2018-07-25T06:06:47.869Z,20.00
2018-07-25T06:09:16.225Z,19.00
2018-07-25T06:11:44.652Z,19.90
2018-07-25T06:14:13.185Z,18.13
2018-07-25T06:16:41.561Z,17.50
2018-07-25T06:19:09.885Z,18.20
2018-07-25T06:21:38.291Z,18.37
2018-07-25T06:24:06.788Z,17.40
2018-07-25T06:26:35.124Z,16.67
2018-07-25T06:29:03.568Z,17.20
2018-07-25T06:31:31.966Z,16.90
2018-07-25T06:34:00.336Z,17.40
2018-07-25T06:36:28.721Z,15.27
2018-07-25T06:38:57.216Z,17.00
2018-07-25T06:41:25.609Z,17.20
2018-07-25T06:43:54.038Z,16.10
2018-07-25T06:46:22.956Z,16.13
2018-07-25T06:48:51.340Z,16.10
2018-07-25T06:51:19.822Z,15.90
2018-07-25T06:53:48.192Z,15.60
2018-07-25T06:56:16.640Z,15.30
2018-07-25T06:58:45.084Z,15.27
2018-07-25T07:01:13.481Z,16.00
2018-07-25T07:03:41.916Z,16.07
2018-07-25T07:06:10.307Z,15.93
2018-07-25T07:08:38.649Z,16.10
2018-07-25T07:11:07.085Z,15.60
2018-07-25T07:13:35.427Z,15.93
2018-07-25T07:16:03.841Z,15.97
2018-07-25T07:18:32.247Z,15.93
2018-07-25T07:21:00.670Z,15.50
2018-07-25T07:23:29.048Z,15.70
2018-07-25T07:25:57.464Z,15.70
2018-07-25T07:28:25.873Z,14.70
2018-07-25T07:30:54.279Z,16.10
2018-07-25T07:33:22.638Z,15.33
2018-07-25T07:35:51.042Z,15.87
2018-07-25T07:38:19.418Z,15.50
2018-07-25T07:40:47.820Z,15.10
2018-07-25T07:43:16.246Z,15.50
2018-07-25T07:45:44.654Z,15.50
2018-07-25T07:48:13.045Z,14.80
2018-07-25T07:50:41.453Z,15.20
2018-07-25T07:53:09.897Z,15.47
2018-07-25T07:55:38.301Z,15.90
2018-07-25T07:58:06.750Z,16.60
2018-07-25T08:00:35.712Z,15.80
2018-07-25T08:03:04.133Z,14.90
2018-07-25T08:05:32.554Z,16.03
2018-07-25T08:08:00.929Z,14.93
2018-07-25T08:10:29.319Z,16.07
2018-07-25T08:12:57.715Z,14.60
2018-07-25T08:15:26.108Z,16.00
2018-07-25T08:17:54.534Z,15.50
2018-07-25T08:20:22.924Z,16.43
2018-07-25T08:22:51.313Z,16.63
2018-07-25T08:25:19.716Z,16.00
2018-07-25T08:27:48.070Z,16.33
2018-07-25T08:30:16.511Z,16.87
2018-07-25T08:32:44.925Z,16.27
2018-07-25T08:35:13.334Z,16.90
2018-07-25T08:37:41.742Z,15.97
2018-07-25T08:40:10.136Z,16.57
2018-07-25T08:42:38.592Z,15.70
2018-07-25T08:45:07.601Z,15.77
2018-07-25T08:47:36.001Z,15.40
2018-07-25T08:50:05.112Z,15.77
2018-07-25T08:52:33.511Z,15.07
2018-07-25T08:55:01.856Z,16.43
2018-07-25T08:57:30.243Z,15.20
2018-07-25T08:59:58.632Z,15.03
2018-07-25T09:02:26.991Z,15.37
2018-07-25T09:04:55.348Z,15.57
2018-07-25T09:07:23.774Z,15.43
2018-07-25T09:09:52.236Z,15.43
2018-07-25T09:12:20.640Z,17.10
2018-07-25T09:14:49.000Z,16.90
2018-07-25T09:17:17.402Z,15.83
2018-07-25T09:19:45.784Z,14.77
2018-07-25T09:22:14.100Z,14.80
2018-07-25T09:24:42.457Z,14.87
2018-07-25T09:27:10.897Z,14.63
2018-07-25T09:29:39.300Z,14.00
2018-07-25T09:32:07.682Z,15.10
2018-07-25T09:34:35.775Z,14.83
2018-07-25T09:37:04.161Z,15.13
2018-07-25T09:39:32.511Z,14.67
2018-07-25T09:42:00.867Z,13.57
2018-07-25T09:44:29.273Z,13.97
2018-07-25T09:46:57.705Z,14.23
2018-07-25T09:49:26.076Z,13.47
2018-07-25T09:51:54.405Z,13.23
2018-07-25T09:54:22.885Z,13.90
2018-07-25T09:56:51.270Z,13.17
2018-07-25T09:59:19.346Z,13.57
2018-07-25T10:01:47.780Z,13.77
2018-07-25T10:04:16.181Z,14.43
2018-07-25T10:06:44.634Z,14.10
2018-07-25T10:09:13.809Z,13.60
2018-07-25T10:11:42.292Z,13.03
2018-07-25T10:14:10.987Z,12.40
2018-07-25T10:16:39.659Z,12.43
2018-07-25T10:19:08.053Z,38.00
2018-07-25T10:21:36.435Z,16.17
2018-07-25T10:24:04.989Z,13.57
2018-07-25T10:26:33.372Z,11.20
2018-07-25T10:29:01.825Z,11.27
2018-07-25T10:31:30.204Z,10.20
2018-07-25T10:33:58.595Z,10.50
2018-07-25T10:36:27.011Z,9.80
2018-07-25T10:38:55.418Z,10.20
2018-07-25T10:41:24.354Z,9.80
2018-07-25T10:43:52.970Z,8.03
2018-07-25T10:46:21.400Z,9.37
2018-07-25T10:48:49.854Z,8.27
2018-07-25T10:51:18.179Z,9.83
2018-07-25T10:53:46.906Z,8.80
2018-07-25T10:56:15.260Z,9.90
2018-07-25T10:58:43.754Z,8.17
2018-07-25T11:01:12.198Z,7.83
2018-07-25T11:03:40.624Z,8.50
2018-07-25T11:06:09.019Z,7.87
2018-07-25T11:08:37.404Z,8.00
2018-07-25T11:11:05.793Z,7.90
2018-07-25T11:13:34.240Z,7.90
2018-07-25T11:16:02.632Z,7.40
2018-07-25T11:18:30.987Z,7.50
2018-07-25T11:20:59.364Z,7.47
2018-07-25T11:23:27.797Z,7.53
2018-07-25T11:25:56.833Z,7.23
2018-07-25T11:28:25.919Z,6.80
2018-07-25T11:30:54.333Z,7.00
2018-07-25T11:33:22.716Z,7.80
2018-07-25T11:35:51.126Z,8.03
2018-07-25T11:38:19.662Z,6.57
2018-07-25T11:40:48.068Z,6.30
2018-07-25T11:43:16.590Z,5.97
2018-07-25T11:45:45.168Z,5.60
2018-07-25T11:48:13.649Z,5.40
2018-07-25T11:50:42.134Z,5.40
2018-07-25T11:53:10.544Z,5.27
2018-07-25T11:55:39.200Z,5.40
2018-07-25T11:58:07.537Z,5.23
2018-07-25T12:00:35.945Z,5.10
2018-07-25T12:03:04.378Z,5.60
2018-07-25T12:05:32.816Z,5.70
2018-07-25T12:08:01.222Z,5.67
2018-07-25T12:10:29.609Z,5.40
2018-07-25T12:12:58.168Z,5.60
2018-07-25T12:15:26.631Z,5.53
2018-07-25T12:17:55.093Z,5.30
2018-07-25T12:20:23.504Z,5.33
2018-07-25T12:22:51.905Z,5.40
2018-07-25T12:25:20.331Z,5.37
2018-07-25T12:27:48.748Z,4.12
2018-07-25T12:30:17.153Z,4.93
2018-07-25T12:32:45.547Z,4.90
2018-07-25T12:35:13.921Z,5.10
2018-07-25T12:37:42.346Z,4.70
2018-07-25T12:40:10.825Z,5.57
2018-07-25T12:42:39.262Z,5.73
2018-07-25T12:45:07.867Z,5.77
2018-07-25T12:47:36.428Z,6.00
2018-07-25T12:50:05.433Z,6.17
2018-07-25T12:52:33.774Z,5.50
2018-07-25T12:55:02.256Z,6.00
2018-07-25T12:57:30.679Z,5.70
2018-07-25T12:59:59.330Z,5.70
2018-07-25T13:02:27.776Z,5.53
2018-07-25T13:04:56.217Z,5.70
2018-07-25T13:07:24.715Z,5.30
2018-07-25T13:09:53.109Z,5.10
2018-07-25T13:12:21.485Z,5.00
2018-07-25T13:14:49.902Z,4.70
2018-07-25T13:17:18.357Z,5.33
2018-07-25T13:19:46.755Z,5.43
2018-07-25T13:22:15.333Z,5.43
2018-07-25T13:24:43.750Z,4.73
2018-07-25T13:27:12.144Z,5.10
2018-07-25T13:29:40.591Z,5.60
2018-07-25T13:32:09.001Z,5.10
2018-07-25T13:34:37.422Z,4.50
2018-07-25T13:37:05.869Z,5.10
2018-07-25T13:39:34.306Z,5.03
2018-07-25T13:42:02.777Z,4.83
2018-07-25T13:44:31.185Z,5.00
2018-07-25T13:46:59.616Z,5.23
2018-07-25T13:49:28.002Z,10.53
2018-07-25T13:51:56.108Z,5.20
2018-07-25T13:54:24.522Z,4.43
2018-07-25T13:56:52.997Z,4.77
2018-07-25T13:59:21.493Z,4.83
2018-07-25T14:01:49.910Z,4.90
2018-07-25T14:04:18.329Z,5.43
2018-07-25T14:06:46.752Z,3.70
2018-07-25T14:09:15.201Z,5.10
2018-07-25T14:11:43.639Z,4.80
2018-07-25T14:14:12.028Z,4.63
2018-07-25T14:16:40.485Z,4.53
2018-07-25T14:19:09.127Z,4.70
2018-07-25T14:21:38.374Z,4.00
2018-07-25T14:24:07.091Z,4.50
2018-07-25T14:26:35.320Z,4.57
2018-07-25T14:29:03.815Z,4.50
2018-07-25T14:31:32.307Z,4.13
2018-07-25T14:34:00.732Z,4.57
2018-07-25T14:36:29.256Z,4.40
2018-07-25T14:38:57.405Z,4.50
2018-07-25T14:41:25.860Z,4.60
2018-07-25T14:43:54.479Z,4.57
2018-07-25T14:46:22.943Z,4.10
2018-07-25T14:48:51.340Z,4.90
2018-07-25T14:51:19.868Z,5.30
2018-07-25T14:53:48.167Z,4.58
2018-07-25T14:56:16.608Z,4.80
2018-07-25T14:58:45.009Z,4.67
2018-07-25T15:01:13.494Z,5.00
2018-07-25T15:03:41.927Z,4.60
2018-07-25T15:06:10.364Z,4.70
2018-07-25T15:08:38.926Z,5.30
2018-07-25T15:11:07.410Z,5.07
2018-07-25T15:13:35.918Z,5.07
2018-07-25T15:16:04.473Z,5.27
2018-07-25T15:18:32.992Z,5.17
2018-07-25T15:21:01.459Z,4.93
2018-07-25T15:23:41.457Z,5.60
2018-07-25T15:26:09.866Z,4.15
2018-07-25T15:28:38.328Z,3.65
2018-07-25T15:31:06.736Z,4.90
2018-07-25T15:33:35.274Z,4.80
2018-07-25T15:36:03.374Z,4.70
2018-07-25T15:38:31.810Z,5.27
2018-07-25T15:41:00.224Z,5.30
2018-07-25T15:43:28.678Z,5.13
2018-07-25T15:45:57.114Z,4.37
2018-07-25T15:48:25.539Z,5.17
2018-07-25T15:50:54.072Z,4.30
2018-07-25T15:53:22.532Z,4.57
2018-07-25T15:55:50.959Z,4.37
2018-07-25T15:58:19.451Z,4.03
2018-07-25T16:00:47.841Z,4.30
2018-07-25T16:03:16.817Z,3.80
2018-07-25T16:05:45.405Z,3.47
2018-07-25T16:08:14.299Z,3.23
2018-07-25T16:10:42.743Z,3.03
2018-07-25T16:13:13.117Z,3.23
2018-07-25T16:15:43.304Z,3.07
2018-07-25T16:18:12.259Z,3.33
2018-07-25T16:20:40.678Z,3.00
2018-07-25T16:23:09.603Z,3.07
2018-07-25T16:25:38.383Z,2.80
2018-07-25T16:28:07.048Z,2.87
2018-07-25T16:30:36.572Z,2.63
2018-07-25T16:33:05.056Z,2.87
2018-07-25T16:35:34.148Z,2.77
2018-07-25T16:38:03.917Z,2.33
2018-07-25T16:40:33.461Z,2.23
2018-07-25T16:43:03.421Z,2.57
2018-07-25T16:45:32.677Z,2.53
2018-07-25T16:48:01.610Z,2.60
2018-07-25T16:50:30.868Z,2.73
2018-07-25T16:52:59.915Z,3.00
2018-07-25T16:55:28.799Z,3.30
2018-07-25T16:57:57.555Z,3.03
2018-07-25T17:00:26.014Z,2.80
2018-07-25T17:02:54.513Z,2.80
2018-07-25T17:05:23.625Z,2.77
2018-07-25T17:07:52.433Z,3.30
2018-07-25T17:10:21.265Z,3.20
2018-07-25T17:12:49.731Z,3.63
2018-07-25T17:15:18.181Z,3.33
2018-07-25T17:17:46.982Z,3.90
2018-07-25T17:20:15.673Z,3.60
2018-07-25T17:22:44.561Z,3.70
2018-07-25T17:25:13.518Z,3.53
2018-07-25T17:27:42.227Z,3.70
2018-07-25T17:30:10.861Z,3.90
2018-07-25T17:32:39.371Z,4.30
2018-07-25T17:35:08.306Z,4.00
2018-07-25T17:37:37.046Z,4.10
2018-07-25T17:40:06.056Z,4.00
2018-07-25T17:42:34.893Z,4.13
2018-07-25T17:45:03.704Z,4.30
2018-07-25T17:47:32.945Z,4.00
2018-07-25T17:50:02.271Z,4.33
2018-07-25T17:52:31.717Z,4.30
2018-07-25T17:55:00.721Z,4.47
2018-07-25T17:57:29.563Z,4.67
2018-07-25T18:00:03.091Z,4.77
2018-07-25T18:02:31.929Z,4.83
2018-07-25T18:05:00.650Z,4.70
2018-07-25T18:07:29.623Z,4.80
2018-07-25T18:09:58.616Z,4.80
2018-07-25T18:12:27.097Z,4.80
2018-07-25T18:14:55.568Z,4.50
2018-07-25T18:17:24.054Z,5.00
2018-07-25T18:19:52.509Z,4.93
2018-07-25T18:22:21.203Z,4.60
2018-07-25T18:24:49.654Z,5.20
2018-07-25T18:27:18.157Z,5.10
2018-07-25T18:29:46.574Z,5.30
2018-07-25T18:32:15.152Z,4.97
2018-07-25T18:34:43.630Z,7.33
2018-07-25T18:37:12.149Z,7.00
2018-07-25T18:39:40.607Z,5.60
2018-07-25T18:42:09.355Z,5.70
2018-07-25T18:44:37.864Z,5.77
2018-07-25T18:47:06.292Z,6.43
2018-07-25T18:49:34.697Z,6.28
2018-07-25T18:52:03.443Z,6.70
2018-07-25T18:54:32.310Z,6.67
2018-07-25T18:57:00.924Z,6.43
2018-07-25T18:59:29.604Z,10.03
2018-07-25T19:01:58.353Z,10.57
2018-07-25T19:04:27.074Z,7.60
2018-07-25T19:06:55.817Z,7.07
2018-07-25T19:09:24.240Z,7.23
2018-07-25T19:11:52.706Z,7.70
2018-07-25T19:14:26.720Z,7.67
2018-07-25T19:16:55.905Z,6.87
2018-07-25T19:19:24.438Z,6.13
2018-07-25T19:21:52.970Z,6.10
2018-07-25T19:24:21.407Z,6.20
2018-07-25T19:26:50.142Z,6.40
2018-07-25T19:29:18.667Z,5.87
2018-07-25T19:31:47.164Z,6.50
2018-07-25T19:34:15.919Z,6.33
2018-07-25T19:36:44.494Z,6.53
2018-07-25T19:39:12.908Z,6.70
2018-07-25T19:41:41.377Z,7.30
2018-07-25T19:44:10.060Z,6.63
2018-07-25T19:46:38.790Z,8.43
2018-07-25T19:49:07.563Z,7.40
2018-07-25T19:51:36.068Z,8.10
2018-07-25T19:54:04.460Z,7.53
2018-07-25T19:56:32.870Z,7.87
2018-07-25T19:59:01.564Z,7.50
2018-07-25T20:01:30.253Z,7.80
2018-07-25T20:03:58.715Z,7.83
2018-07-25T20:06:27.138Z,7.42
2018-07-25T20:08:55.929Z,8.20
2018-07-25T20:11:24.671Z,8.90
2018-07-25T20:13:58.877Z,9.17
2018-07-25T20:16:27.353Z,9.43
2018-07-25T20:18:55.799Z,9.00
2018-07-25T20:21:24.513Z,8.70
2018-07-25T20:23:53.326Z,8.70
2018-07-25T20:26:21.810Z,8.60
2018-07-25T20:28:50.480Z,8.70
2018-07-25T20:31:19.192Z,8.87
2018-07-25T20:33:47.632Z,8.90
2018-07-25T20:36:16.078Z,8.60
2018-07-25T20:38:44.761Z,9.67
2018-07-25T20:41:13.199Z,8.77
2018-07-25T20:43:41.620Z,9.50
2018-07-25T20:46:10.112Z,10.70
2018-07-25T20:48:38.492Z,12.53
2018-07-25T20:51:07.209Z,8.87
2018-07-25T20:53:35.700Z,9.50
2018-07-25T20:56:04.531Z,8.73
2018-07-25T20:58:33.040Z,9.50
2018-07-25T21:01:01.750Z,8.70
2018-07-25T21:03:30.249Z,9.37
2018-07-25T21:05:58.684Z,9.60
2018-07-25T21:08:27.140Z,9.77
2018-07-25T21:10:55.611Z,9.30
2018-07-25T21:13:23.995Z,9.03
2018-07-25T21:15:52.645Z,9.60
2018-07-25T21:18:21.016Z,9.70
2018-07-25T21:20:49.476Z,9.70
2018-07-25T21:23:17.897Z,8.63
2018-07-25T21:25:46.369Z,8.90
2018-07-25T21:28:14.746Z,9.60
2018-07-25T21:30:43.181Z,9.73
2018-07-25T21:33:11.249Z,9.40
2018-07-25T21:35:39.738Z,9.30
2018-07-25T21:38:08.193Z,9.70
2018-07-25T21:40:36.606Z,9.57
2018-07-25T21:43:05.122Z,10.27
2018-07-25T21:45:33.590Z,9.43
2018-07-25T21:48:01.996Z,14.70
2018-07-25T21:50:30.532Z,11.20
2018-07-25T21:52:59.137Z,10.20
2018-07-25T21:55:27.518Z,9.90
2018-07-25T21:57:55.923Z,10.20
2018-07-25T22:00:24.374Z,9.77
2018-07-25T22:02:52.866Z,12.90
2018-07-25T22:05:21.282Z,11.60
2018-07-25T22:07:49.649Z,12.67
2018-07-25T22:10:18.050Z,10.23
2018-07-25T22:12:46.529Z,9.57
2018-07-25T22:15:14.952Z,9.53
2018-07-25T22:17:43.343Z,8.70
2018-07-25T22:20:12.706Z,8.60
2018-07-25T22:22:41.327Z,9.00
2018-07-25T22:25:10.494Z,8.93
2018-07-25T22:27:39.615Z,9.83
2018-07-25T22:30:08.445Z,8.97
2018-07-25T22:32:37.745Z,8.90
2018-07-25T22:35:06.145Z,8.20
2018-07-25T22:37:34.211Z,8.93
2018-07-25T22:40:02.666Z,8.77
2018-07-25T22:42:31.194Z,9.47
2018-07-25T22:44:59.497Z,8.20
2018-07-25T22:47:27.875Z,9.40
2018-07-25T22:49:56.263Z,9.67
2018-07-25T22:52:24.654Z,10.30
2018-07-25T22:54:53.050Z,10.90
2018-07-25T22:57:21.454Z,12.37
2018-07-25T22:59:49.523Z,12.70
2018-07-25T23:02:17.943Z,12.53
2018-07-25T23:04:46.336Z,12.07
2018-07-25T23:07:14.737Z,11.03
2018-07-25T23:09:43.067Z,11.80
2018-07-25T23:12:11.435Z,19.10
2018-07-25T23:14:39.856Z,11.63
2018-07-25T23:17:08.262Z,11.80
2018-07-25T23:19:36.586Z,12.10
2018-07-25T23:22:04.992Z,18.80
2018-07-25T23:24:33.350Z,55.40
2018-07-25T23:27:01.735Z,16.00
2018-07-25T23:29:30.146Z,19.57
2018-07-25T23:31:58.452Z,11.50
2018-07-25T23:34:26.576Z,10.40
2018-07-25T23:36:54.975Z,11.47
2018-07-25T23:39:23.410Z,11.27
2018-07-25T23:41:51.807Z,10.30
2018-07-25T23:44:20.187Z,10.50
2018-07-25T23:46:48.520Z,10.87
2018-07-25T23:49:16.617Z,11.03
2018-07-25T23:51:45.024Z,10.30
2018-07-25T23:54:13.408Z,10.17
2018-07-25T23:56:41.807Z,10.93
2018-07-25T23:59:10.257Z,10.40
